11R

Brenham Municipal Airport

Brenham, Texas, USA
METAR K11R 150755Z AUTO 00000KT 10SM CLR 00/M01 A3035 RMK AO2 T10021006
Observed Flight Rules
Nov-15 @ 07:55 UTC (35 minutes ago) Visual Flight Rules
Visibility Clouds
10 miles
  • Clear skies
Temperatures Readings
Current -0°C / 32°F
Dewpoint -1°C / 30°F
Humidity 93%
Altimeter 30.35" Hg
Pressure 1028 hPa
Elevation 94
METAR K11R 150755Z AUTO 00000KT 10SM CLR 00/M01 A3035 RMK AO2 T10021006
Observed Flight Rules
Nov-15 @ 07:55 UTC
(35 minutes ago)
VFR
Clouds
  • Clear skies
Temperature Dewpoint
-0°C / 32°F -1°C / 30°F
Humidity Altimeter Pressure
93% 30.35" Hg 1028 hPa